sensor_id;sensor_type;location;lat;lon;timestamp;P1;durP1;ratioP1;P2;durP2;ratioP2
20725;SDS011;10524;48.132;8.518;2023-05-02T00:01:12;27.33;;;20.40;;
20725;SDS011;10524;48.132;8.518;2023-05-02T00:03:37;27.30;;;19.83;;
20725;SDS011;10524;48.132;8.518;2023-05-02T00:06:03;35.28;;;24.77;;
20725;SDS011;10524;48.132;8.518;2023-05-02T00:08:28;34.35;;;23.67;;
20725;SDS011;10524;48.132;8.518;2023-05-02T00:10:54;35.05;;;22.50;;
20725;SDS011;10524;48.132;8.518;2023-05-02T00:13:20;31.02;;;21.80;;
20725;SDS011;10524;48.132;8.518;2023-05-02T00:15:45;30.77;;;22.25;;
20725;SDS011;10524;48.132;8.518;2023-05-02T00:18:11;31.77;;;21.50;;
20725;SDS011;10524;48.132;8.518;2023-05-02T00:20:38;34.33;;;22.40;;
20725;SDS011;10524;48.132;8.518;2023-05-02T00:23:05;32.67;;;21.13;;
20725;SDS011;10524;48.132;8.518;2023-05-02T00:25:30;36.88;;;24.65;;
20725;SDS011;10524;48.132;8.518;2023-05-02T00:27:56;34.80;;;24.45;;
20725;SDS011;10524;48.132;8.518;2023-05-02T00:30:22;43.53;;;26.73;;
20725;SDS011;10524;48.132;8.518;2023-05-02T00:32:47;41.42;;;26.85;;
20725;SDS011;10524;48.132;8.518;2023-05-02T00:35:13;44.67;;;27.23;;
20725;SDS011;10524;48.132;8.518;2023-05-02T00:37:38;37.22;;;25.75;;
20725;SDS011;10524;48.132;8.518;2023-05-02T00:40:05;45.67;;;27.55;;
20725;SDS011;10524;48.132;8.518;2023-05-02T00:42:32;44.90;;;27.55;;
20725;SDS011;10524;48.132;8.518;2023-05-02T00:45:00;42.90;;;27.80;;
20725;SDS011;10524;48.132;8.518;2023-05-02T00:47:26;45.53;;;28.17;;
20725;SDS011;10524;48.132;8.518;2023-05-02T00:49:52;42.08;;;27.63;;
20725;SDS011;10524;48.132;8.518;2023-05-02T00:52:17;41.47;;;25.77;;
20725;SDS011;10524;48.132;8.518;2023-05-02T00:54:44;43.00;;;27.08;;
20725;SDS011;10524;48.132;8.518;2023-05-02T00:57:11;43.88;;;28.38;;
20725;SDS011;10524;48.132;8.518;2023-05-02T00:59:36;41.80;;;26.52;;
20725;SDS011;10524;48.132;8.518;2023-05-02T01:04:54;24.90;;;17.27;;
20725;SDS011;10524;48.132;8.518;2023-05-02T01:15:56;23.63;;;16.70;;
20725;SDS011;10524;48.132;8.518;2023-05-02T01:18:25;26.55;;;18.58;;
20725;SDS011;10524;48.132;8.518;2023-05-02T01:21:16;24.85;;;16.80;;
20725;SDS011;10524;48.132;8.518;2023-05-02T01:26:58;39.20;;;25.08;;
20725;SDS011;10524;48.132;8.518;2023-05-02T01:29:21;41.45;;;24.77;;
20725;SDS011;10524;48.132;8.518;2023-05-02T01:31:48;42.75;;;26.17;;
20725;SDS011;10524;48.132;8.518;2023-05-02T01:34:15;39.53;;;24.55;;
20725;SDS011;10524;48.132;8.518;2023-05-02T01:36:44;34.70;;;22.15;;
20725;SDS011;10524;48.132;8.518;2023-05-02T01:39:13;29.08;;;19.85;;
20725;SDS011;10524;48.132;8.518;2023-05-02T01:41:43;27.65;;;18.92;;
20725;SDS011;10524;48.132;8.518;2023-05-02T01:44:10;25.77;;;17.08;;
20725;SDS011;10524;48.132;8.518;2023-05-02T01:46:39;24.08;;;15.68;;
20725;SDS011;10524;48.132;8.518;2023-05-02T01:49:07;20.08;;;15.10;;
20725;SDS011;10524;48.132;8.518;2023-05-02T01:51:34;23.77;;;16.80;;
20725;SDS011;10524;48.132;8.518;2023-05-02T01:54:07;27.52;;;17.95;;
20725;SDS011;10524;48.132;8.518;2023-05-02T01:56:37;28.38;;;18.73;;
20725;SDS011;10524;48.132;8.518;2023-05-02T01:59:04;28.42;;;18.77;;
20725;SDS011;10524;48.132;8.518;2023-05-02T02:01:33;32.65;;;21.35;;
20725;SDS011;10524;48.132;8.518;2023-05-02T02:04:00;27.75;;;18.38;;
20725;SDS011;10524;48.132;8.518;2023-05-02T02:06:27;23.80;;;16.48;;
20725;SDS011;10524;48.132;8.518;2023-05-02T02:08:53;27.85;;;18.45;;
20725;SDS011;10524;48.132;8.518;2023-05-02T02:14:17;42.13;;;23.55;;
20725;SDS011;10524;48.132;8.518;2023-05-02T02:16:49;31.20;;;19.67;;
20725;SDS011;10524;48.132;8.518;2023-05-02T02:19:20;33.13;;;20.77;;
20725;SDS011;10524;48.132;8.518;2023-05-02T02:21:46;24.65;;;16.13;;
20725;SDS011;10524;48.132;8.518;2023-05-02T02:24:13;34.15;;;20.58;;
20725;SDS011;10524;48.132;8.518;2023-05-02T02:26:41;31.25;;;19.80;;
20725;SDS011;10524;48.132;8.518;2023-05-02T02:29:07;40.60;;;23.92;;
20725;SDS011;10524;48.132;8.518;2023-05-02T02:31:33;29.05;;;18.98;;
20725;SDS011;10524;48.132;8.518;2023-05-02T02:34:00;27.88;;;17.63;;
20725;SDS011;10524;48.132;8.518;2023-05-02T02:42:05;24.83;;;16.50;;
20725;SDS011;10524;48.132;8.518;2023-05-02T02:44:42;26.65;;;17.92;;
20725;SDS011;10524;48.132;8.518;2023-05-02T02:49:47;52.10;;;27.52;;
20725;SDS011;10524;48.132;8.518;2023-05-02T02:52:34;58.65;;;30.17;;
20725;SDS011;10524;48.132;8.518;2023-05-02T02:55:15;64.15;;;32.67;;
20725;SDS011;10524;48.132;8.518;2023-05-02T02:58:14;62.00;;;31.50;;
20725;SDS011;10524;48.132;8.518;2023-05-02T03:00:49;59.85;;;30.95;;
20725;SDS011;10524;48.132;8.518;2023-05-02T03:03:17;47.42;;;26.10;;
20725;SDS011;10524;48.132;8.518;2023-05-02T03:05:46;39.38;;;21.08;;
20725;SDS011;10524;48.132;8.518;2023-05-02T03:08:13;26.80;;;18.58;;
20725;SDS011;10524;48.132;8.518;2023-05-02T03:10:39;28.88;;;18.67;;
20725;SDS011;10524;48.132;8.518;2023-05-02T03:13:04;31.17;;;19.15;;
20725;SDS011;10524;48.132;8.518;2023-05-02T03:18:17;27.75;;;17.85;;
20725;SDS011;10524;48.132;8.518;2023-05-02T03:20:43;30.73;;;18.88;;
20725;SDS011;10524;48.132;8.518;2023-05-02T03:23:09;31.98;;;19.48;;
20725;SDS011;10524;48.132;8.518;2023-05-02T03:25:35;70.47;;;22.27;;
20725;SDS011;10524;48.132;8.518;2023-05-02T03:28:01;31.35;;;19.67;;
20725;SDS011;10524;48.132;8.518;2023-05-02T03:30:26;30.67;;;19.27;;
20725;SDS011;10524;48.132;8.518;2023-05-02T03:32:52;30.90;;;19.55;;
20725;SDS011;10524;48.132;8.518;2023-05-02T03:35:18;38.70;;;20.63;;
20725;SDS011;10524;48.132;8.518;2023-05-02T03:37:44;35.55;;;20.55;;
20725;SDS011;10524;48.132;8.518;2023-05-02T03:40:10;43.40;;;22.92;;
20725;SDS011;10524;48.132;8.518;2023-05-02T03:42:36;64.55;;;25.60;;
20725;SDS011;10524;48.132;8.518;2023-05-02T03:45:08;41.47;;;23.48;;
20725;SDS011;10524;48.132;8.518;2023-05-02T03:47:34;48.80;;;25.38;;
20725;SDS011;10524;48.132;8.518;2023-05-02T03:50:00;39.55;;;22.75;;
20725;SDS011;10524;48.132;8.518;2023-05-02T03:52:26;40.00;;;22.73;;
20725;SDS011;10524;48.132;8.518;2023-05-02T03:54:52;39.03;;;21.80;;
20725;SDS011;10524;48.132;8.518;2023-05-02T03:57:18;42.60;;;23.42;;
20725;SDS011;10524;48.132;8.518;2023-05-02T03:59:43;41.92;;;22.88;;
20725;SDS011;10524;48.132;8.518;2023-05-02T04:02:12;44.00;;;24.80;;
20725;SDS011;10524;48.132;8.518;2023-05-02T04:04:39;60.60;;;33.72;;
20725;SDS011;10524;48.132;8.518;2023-05-02T04:07:05;53.30;;;28.38;;
20725;SDS011;10524;48.132;8.518;2023-05-02T04:09:32;45.28;;;25.20;;
20725;SDS011;10524;48.132;8.518;2023-05-02T04:11:58;49.75;;;25.23;;
20725;SDS011;10524;48.132;8.518;2023-05-02T04:14:24;50.13;;;27.25;;
20725;SDS011;10524;48.132;8.518;2023-05-02T04:16:49;55.83;;;28.42;;
20725;SDS011;10524;48.132;8.518;2023-05-02T04:19:16;53.60;;;25.60;;
20725;SDS011;10524;48.132;8.518;2023-05-02T04:21:42;52.97;;;25.67;;
20725;SDS011;10524;48.132;8.518;2023-05-02T04:24:08;48.17;;;24.80;;
20725;SDS011;10524;48.132;8.518;2023-05-02T04:26:34;59.90;;;29.48;;
20725;SDS011;10524;48.132;8.518;2023-05-02T04:29:00;54.25;;;28.48;;
20725;SDS011;10524;48.132;8.518;2023-05-02T04:31:25;66.47;;;34.28;;
20725;SDS011;10524;48.132;8.518;2023-05-02T04:33:51;65.18;;;34.00;;
20725;SDS011;10524;48.132;8.518;2023-05-02T04:36:17;68.53;;;34.95;;
20725;SDS011;10524;48.132;8.518;2023-05-02T04:38:46;66.13;;;33.03;;
20725;SDS011;10524;48.132;8.518;2023-05-02T04:41:11;78.53;;;35.95;;
20725;SDS011;10524;48.132;8.518;2023-05-02T04:43:37;75.85;;;34.80;;
20725;SDS011;10524;48.132;8.518;2023-05-02T04:46:03;75.88;;;36.80;;
20725;SDS011;10524;48.132;8.518;2023-05-02T04:48:29;78.15;;;35.40;;
20725;SDS011;10524;48.132;8.518;2023-05-02T04:50:54;72.63;;;35.42;;
20725;SDS011;10524;48.132;8.518;2023-05-02T04:53:21;84.55;;;40.67;;
20725;SDS011;10524;48.132;8.518;2023-05-02T04:55:47;81.30;;;39.20;;
20725;SDS011;10524;48.132;8.518;2023-05-02T04:58:13;66.45;;;32.42;;
20725;SDS011;10524;48.132;8.518;2023-05-02T05:00:39;63.40;;;32.50;;
20725;SDS011;10524;48.132;8.518;2023-05-02T05:03:05;68.32;;;33.97;;
20725;SDS011;10524;48.132;8.518;2023-05-02T05:05:31;66.60;;;32.08;;
20725;SDS011;10524;48.132;8.518;2023-05-02T05:07:57;64.60;;;31.63;;
20725;SDS011;10524;48.132;8.518;2023-05-02T05:10:22;57.22;;;30.73;;
20725;SDS011;10524;48.132;8.518;2023-05-02T05:12:48;53.22;;;30.20;;
20725;SDS011;10524;48.132;8.518;2023-05-02T05:15:14;60.63;;;30.80;;
20725;SDS011;10524;48.132;8.518;2023-05-02T05:17:40;66.40;;;34.17;;
20725;SDS011;10524;48.132;8.518;2023-05-02T05:20:06;79.80;;;40.30;;
20725;SDS011;10524;48.132;8.518;2023-05-02T05:22:39;82.05;;;39.35;;
20725;SDS011;10524;48.132;8.518;2023-05-02T05:25:05;82.75;;;41.70;;
20725;SDS011;10524;48.132;8.518;2023-05-02T05:27:35;78.32;;;40.20;;
20725;SDS011;10524;48.132;8.518;2023-05-02T05:30:01;69.35;;;36.92;;
20725;SDS011;10524;48.132;8.518;2023-05-02T05:32:28;47.22;;;30.23;;
20725;SDS011;10524;48.132;8.518;2023-05-02T05:34:54;48.67;;;30.63;;
20725;SDS011;10524;48.132;8.518;2023-05-02T05:37:19;45.90;;;31.02;;
20725;SDS011;10524;48.132;8.518;2023-05-02T05:39:45;44.15;;;32.20;;
20725;SDS011;10524;48.132;8.518;2023-05-02T05:42:11;36.60;;;27.63;;
20725;SDS011;10524;48.132;8.518;2023-05-02T05:44:37;27.00;;;23.73;;
20725;SDS011;10524;48.132;8.518;2023-05-02T05:47:03;24.42;;;21.80;;
20725;SDS011;10524;48.132;8.518;2023-05-02T05:49:29;16.40;;;13.32;;
20725;SDS011;10524;48.132;8.518;2023-05-02T05:51:55;11.77;;;10.32;;
20725;SDS011;10524;48.132;8.518;2023-05-02T05:54:21;11.07;;;10.00;;
20725;SDS011;10524;48.132;8.518;2023-05-02T05:56:47;9.88;;;8.98;;
20725;SDS011;10524;48.132;8.518;2023-05-02T05:59:13;9.20;;;8.30;;
20725;SDS011;10524;48.132;8.518;2023-05-02T06:01:39;9.50;;;8.60;;
20725;SDS011;10524;48.132;8.518;2023-05-02T06:04:05;10.80;;;9.75;;
20725;SDS011;10524;48.132;8.518;2023-05-02T06:06:31;11.45;;;10.25;;
20725;SDS011;10524;48.132;8.518;2023-05-02T06:08:57;11.50;;;10.35;;
20725;SDS011;10524;48.132;8.518;2023-05-02T06:11:23;12.35;;;11.05;;
20725;SDS011;10524;48.132;8.518;2023-05-02T06:13:50;14.50;;;10.88;;
20725;SDS011;10524;48.132;8.518;2023-05-02T06:16:16;12.98;;;11.68;;
20725;SDS011;10524;48.132;8.518;2023-05-02T06:18:45;13.88;;;12.48;;
20725;SDS011;10524;48.132;8.518;2023-05-02T06:21:10;16.05;;;14.27;;
20725;SDS011;10524;48.132;8.518;2023-05-02T06:23:36;16.70;;;14.88;;
20725;SDS011;10524;48.132;8.518;2023-05-02T06:26:02;16.90;;;15.18;;
20725;SDS011;10524;48.132;8.518;2023-05-02T06:28:29;17.55;;;15.68;;
20725;SDS011;10524;48.132;8.518;2023-05-02T06:30:57;18.48;;;15.77;;
20725;SDS011;10524;48.132;8.518;2023-05-02T06:33:27;18.40;;;16.60;;
20725;SDS011;10524;48.132;8.518;2023-05-02T06:35:56;18.58;;;16.58;;
20725;SDS011;10524;48.132;8.518;2023-05-02T06:38:22;17.80;;;15.38;;
20725;SDS011;10524;48.132;8.518;2023-05-02T06:40:48;17.05;;;14.80;;
20725;SDS011;10524;48.132;8.518;2023-05-02T06:43:15;17.17;;;15.35;;
20725;SDS011;10524;48.132;8.518;2023-05-02T06:45:41;19.33;;;15.38;;
20725;SDS011;10524;48.132;8.518;2023-05-02T06:48:07;17.85;;;15.95;;
20725;SDS011;10524;48.132;8.518;2023-05-02T06:50:33;19.20;;;15.80;;
20725;SDS011;10524;48.132;8.518;2023-05-02T06:52:59;18.60;;;16.70;;
20725;SDS011;10524;48.132;8.518;2023-05-02T06:55:25;18.17;;;16.33;;
20725;SDS011;10524;48.132;8.518;2023-05-02T06:57:51;16.73;;;15.02;;
20725;SDS011;10524;48.132;8.518;2023-05-02T07:00:18;15.63;;;14.02;;
20725;SDS011;10524;48.132;8.518;2023-05-02T07:02:44;14.85;;;13.35;;
20725;SDS011;10524;48.132;8.518;2023-05-02T07:05:11;12.98;;;11.68;;
20725;SDS011;10524;48.132;8.518;2023-05-02T07:07:37;13.90;;;12.43;;
20725;SDS011;10524;48.132;8.518;2023-05-02T07:10:03;11.93;;;10.73;;
20725;SDS011;10524;48.132;8.518;2023-05-02T07:12:29;11.75;;;10.55;;
20725;SDS011;10524;48.132;8.518;2023-05-02T07:14:55;11.45;;;10.35;;
20725;SDS011;10524;48.132;8.518;2023-05-02T07:17:21;11.18;;;10.15;;
20725;SDS011;10524;48.132;8.518;2023-05-02T07:19:47;11.40;;;10.10;;
20725;SDS011;10524;48.132;8.518;2023-05-02T07:22:12;11.65;;;10.55;;
20725;SDS011;10524;48.132;8.518;2023-05-02T07:24:41;11.45;;;10.35;;
20725;SDS011;10524;48.132;8.518;2023-05-02T07:27:07;11.82;;;10.68;;
20725;SDS011;10524;48.132;8.518;2023-05-02T07:29:34;11.07;;;10.07;;
20725;SDS011;10524;48.132;8.518;2023-05-02T07:32:00;11.18;;;9.95;;
20725;SDS011;10524;48.132;8.518;2023-05-02T07:34:25;11.48;;;10.38;;
20725;SDS011;10524;48.132;8.518;2023-05-02T07:36:51;11.40;;;10.30;;
20725;SDS011;10524;48.132;8.518;2023-05-02T07:39:17;10.80;;;9.70;;
20725;SDS011;10524;48.132;8.518;2023-05-02T07:41:43;12.30;;;10.43;;
20725;SDS011;10524;48.132;8.518;2023-05-02T07:44:08;10.00;;;9.00;;
20725;SDS011;10524;48.132;8.518;2023-05-02T07:46:34;11.52;;;9.38;;
20725;SDS011;10524;48.132;8.518;2023-05-02T07:48:59;11.43;;;9.23;;
20725;SDS011;10524;48.132;8.518;2023-05-02T07:51:25;11.95;;;8.73;;
20725;SDS011;10524;48.132;8.518;2023-05-02T07:53:52;10.68;;;9.65;;
20725;SDS011;10524;48.132;8.518;2023-05-02T07:56:19;10.32;;;9.25;;
20725;SDS011;10524;48.132;8.518;2023-05-02T07:58:45;10.20;;;9.20;;
20725;SDS011;10524;48.132;8.518;2023-05-02T08:01:11;9.85;;;8.95;;
20725;SDS011;10524;48.132;8.518;2023-05-02T08:03:36;8.88;;;7.60;;
20725;SDS011;10524;48.132;8.518;2023-05-02T08:06:02;8.82;;;7.93;;
20725;SDS011;10524;48.132;8.518;2023-05-02T08:08:28;8.70;;;7.90;;
20725;SDS011;10524;48.132;8.518;2023-05-02T08:10:54;8.30;;;7.50;;
20725;SDS011;10524;48.132;8.518;2023-05-02T08:13:19;9.23;;;8.38;;
20725;SDS011;10524;48.132;8.518;2023-05-02T08:15:45;9.52;;;8.32;;
20725;SDS011;10524;48.132;8.518;2023-05-02T08:18:10;9.15;;;8.15;;
20725;SDS011;10524;48.132;8.518;2023-05-02T08:20:36;9.75;;;8.85;;
20725;SDS011;10524;48.132;8.518;2023-05-02T08:23:02;9.52;;;8.63;;
20725;SDS011;10524;48.132;8.518;2023-05-02T08:25:27;8.95;;;7.95;;
20725;SDS011;10524;48.132;8.518;2023-05-02T08:27:54;8.80;;;7.90;;
20725;SDS011;10524;48.132;8.518;2023-05-02T08:30:20;8.43;;;7.57;;
20725;SDS011;10524;48.132;8.518;2023-05-02T08:32:46;9.93;;;7.75;;
20725;SDS011;10524;48.132;8.518;2023-05-02T08:35:11;8.27;;;7.38;;
20725;SDS011;10524;48.132;8.518;2023-05-02T08:37:38;8.65;;;7.70;;
20725;SDS011;10524;48.132;8.518;2023-05-02T08:40:04;8.25;;;7.53;;
20725;SDS011;10524;48.132;8.518;2023-05-02T08:42:35;8.25;;;7.53;;
20725;SDS011;10524;48.132;8.518;2023-05-02T08:45:01;9.27;;;7.75;;
20725;SDS011;10524;48.132;8.518;2023-05-02T08:47:27;9.18;;;8.27;;
20725;SDS011;10524;48.132;8.518;2023-05-02T08:49:55;9.38;;;8.48;;
20725;SDS011;10524;48.132;8.518;2023-05-02T08:52:22;10.52;;;9.32;;
20725;SDS011;10524;48.132;8.518;2023-05-02T08:54:48;9.40;;;8.50;;
20725;SDS011;10524;48.132;8.518;2023-05-02T08:57:15;8.82;;;7.93;;
20725;SDS011;10524;48.132;8.518;2023-05-02T08:59:41;9.40;;;8.30;;
20725;SDS011;10524;48.132;8.518;2023-05-02T09:02:44;7.80;;;7.10;;
20725;SDS011;10524;48.132;8.518;2023-05-02T09:05:11;8.50;;;7.70;;
20725;SDS011;10524;48.132;8.518;2023-05-02T09:07:45;9.20;;;8.30;;
20725;SDS011;10524;48.132;8.518;2023-05-02T09:10:12;8.80;;;8.00;;
20725;SDS011;10524;48.132;8.518;2023-05-02T09:12:39;8.38;;;7.57;;
20725;SDS011;10524;48.132;8.518;2023-05-02T09:15:11;8.10;;;7.30;;
20725;SDS011;10524;48.132;8.518;2023-05-02T09:17:43;10.23;;;8.60;;
20725;SDS011;10524;48.132;8.518;2023-05-02T09:20:13;8.73;;;7.93;;
20725;SDS011;10524;48.132;8.518;2023-05-02T09:22:46;8.73;;;7.82;;
20725;SDS011;10524;48.132;8.518;2023-05-02T09:25:14;8.25;;;7.45;;
20725;SDS011;10524;48.132;8.518;2023-05-02T09:27:51;8.80;;;7.97;;
20725;SDS011;10524;48.132;8.518;2023-05-02T09:30:22;8.38;;;7.50;;
20725;SDS011;10524;48.132;8.518;2023-05-02T09:32:49;8.90;;;8.00;;
20725;SDS011;10524;48.132;8.518;2023-05-02T09:35:16;9.85;;;8.88;;
20725;SDS011;10524;48.132;8.518;2023-05-02T09:37:49;10.80;;;9.73;;
20725;SDS011;10524;48.132;8.518;2023-05-02T09:40:15;10.95;;;9.85;;
20725;SDS011;10524;48.132;8.518;2023-05-02T09:42:41;10.18;;;9.18;;
20725;SDS011;10524;48.132;8.518;2023-05-02T09:45:07;10.10;;;9.10;;
20725;SDS011;10524;48.132;8.518;2023-05-02T09:47:33;10.55;;;9.45;;
20725;SDS011;10524;48.132;8.518;2023-05-02T09:50:00;10.30;;;9.25;;
20725;SDS011;10524;48.132;8.518;2023-05-02T09:52:26;12.45;;;9.52;;
20725;SDS011;10524;48.132;8.518;2023-05-02T09:54:51;12.48;;;9.35;;
20725;SDS011;10524;48.132;8.518;2023-05-02T09:57:17;10.82;;;9.63;;
20725;SDS011;10524;48.132;8.518;2023-05-02T09:59:56;11.52;;;10.35;;
20725;SDS011;10524;48.132;8.518;2023-05-02T10:02:23;11.82;;;10.50;;
20725;SDS011;10524;48.132;8.518;2023-05-02T10:04:49;12.05;;;10.75;;
20725;SDS011;10524;48.132;8.518;2023-05-02T10:07:17;12.18;;;10.88;;
20725;SDS011;10524;48.132;8.518;2023-05-02T10:09:44;11.80;;;10.63;;
20725;SDS011;10524;48.132;8.518;2023-05-02T10:12:13;12.52;;;11.23;;
20725;SDS011;10524;48.132;8.518;2023-05-02T10:14:40;12.57;;;11.18;;
20725;SDS011;10524;48.132;8.518;2023-05-02T10:17:19;12.25;;;10.80;;
20725;SDS011;10524;48.132;8.518;2023-05-02T10:20:04;13.02;;;11.73;;
20725;SDS011;10524;48.132;8.518;2023-05-02T10:22:34;13.30;;;11.90;;
20725;SDS011;10524;48.132;8.518;2023-05-02T10:25:00;14.63;;;13.00;;
20725;SDS011;10524;48.132;8.518;2023-05-02T10:27:31;13.95;;;12.52;;
20725;SDS011;10524;48.132;8.518;2023-05-02T10:29:57;14.25;;;12.32;;
20725;SDS011;10524;48.132;8.518;2023-05-02T10:32:26;14.75;;;12.63;;
20725;SDS011;10524;48.132;8.518;2023-05-02T10:34:53;13.32;;;11.90;;
20725;SDS011;10524;48.132;8.518;2023-05-02T10:37:21;13.07;;;11.77;;
20725;SDS011;10524;48.132;8.518;2023-05-02T10:39:49;15.60;;;11.95;;
20725;SDS011;10524;48.132;8.518;2023-05-02T10:42:16;13.13;;;11.80;;
20725;SDS011;10524;48.132;8.518;2023-05-02T10:44:43;15.07;;;12.73;;
20725;SDS011;10524;48.132;8.518;2023-05-02T10:52:28;11.38;;;10.27;;
20725;SDS011;10524;48.132;8.518;2023-05-02T11:00:23;9.85;;;8.85;;
20725;SDS011;10524;48.132;8.518;2023-05-02T11:02:50;10.73;;;9.27;;
20725;SDS011;10524;48.132;8.518;2023-05-02T11:05:16;11.25;;;10.15;;
20725;SDS011;10524;48.132;8.518;2023-05-02T11:07:41;10.82;;;9.70;;
20725;SDS011;10524;48.132;8.518;2023-05-02T11:12:42;11.30;;;9.52;;
20725;SDS011;10524;48.132;8.518;2023-05-02T11:15:58;11.52;;;10.43;;
20725;SDS011;10524;48.132;8.518;2023-05-02T11:18:18;11.88;;;10.68;;
20725;SDS011;10524;48.132;8.518;2023-05-02T11:20:44;11.68;;;10.30;;
20725;SDS011;10524;48.132;8.518;2023-05-02T11:25:39;11.85;;;10.52;;
20725;SDS011;10524;48.132;8.518;2023-05-02T11:28:08;12.05;;;10.80;;
20725;SDS011;10524;48.132;8.518;2023-05-02T11:31:02;12.38;;;11.00;;
20725;SDS011;10524;48.132;8.518;2023-05-02T11:33:31;10.85;;;9.65;;
20725;SDS011;10524;48.132;8.518;2023-05-02T11:35:57;10.98;;;9.23;;
20725;SDS011;10524;48.132;8.518;2023-05-02T11:38:23;9.50;;;8.50;;
20725;SDS011;10524;48.132;8.518;2023-05-02T11:40:50;10.70;;;9.65;;
20725;SDS011;10524;48.132;8.518;2023-05-02T11:43:18;9.95;;;8.93;;
20725;SDS011;10524;48.132;8.518;2023-05-02T11:45:45;9.38;;;8.48;;
20725;SDS011;10524;48.132;8.518;2023-05-02T11:48:12;10.95;;;8.30;;
20725;SDS011;10524;48.132;8.518;2023-05-02T11:50:44;9.07;;;8.18;;
20725;SDS011;10524;48.132;8.518;2023-05-02T11:53:12;8.88;;;7.97;;
20725;SDS011;10524;48.132;8.518;2023-05-02T11:55:43;9.02;;;8.13;;
20725;SDS011;10524;48.132;8.518;2023-05-02T11:58:20;9.38;;;7.72;;
20725;SDS011;10524;48.132;8.518;2023-05-02T12:00:47;7.72;;;6.80;;
20725;SDS011;10524;48.132;8.518;2023-05-02T12:03:25;9.18;;;8.20;;
20725;SDS011;10524;48.132;8.518;2023-05-02T12:05:55;10.25;;;9.13;;
20725;SDS011;10524;48.132;8.518;2023-05-02T12:08:23;11.07;;;9.98;;
20725;SDS011;10524;48.132;8.518;2023-05-02T12:10:55;10.35;;;9.38;;
20725;SDS011;10524;48.132;8.518;2023-05-02T12:13:22;12.52;;;9.60;;
20725;SDS011;10524;48.132;8.518;2023-05-02T12:15:48;10.20;;;9.20;;
20725;SDS011;10524;48.132;8.518;2023-05-02T12:18:16;10.05;;;9.10;;
20725;SDS011;10524;48.132;8.518;2023-05-02T12:20:42;10.60;;;9.48;;
20725;SDS011;10524;48.132;8.518;2023-05-02T12:23:09;10.52;;;8.95;;
20725;SDS011;10524;48.132;8.518;2023-05-02T12:25:39;10.77;;;9.23;;
20725;SDS011;10524;48.132;8.518;2023-05-02T12:28:05;10.20;;;9.20;;
20725;SDS011;10524;48.132;8.518;2023-05-02T12:30:31;9.63;;;8.70;;
20725;SDS011;10524;48.132;8.518;2023-05-02T12:32:58;11.10;;;9.85;;
20725;SDS011;10524;48.132;8.518;2023-05-02T12:35:28;10.68;;;9.52;;
20725;SDS011;10524;48.132;8.518;2023-05-02T12:38:06;11.77;;;10.57;;
20725;SDS011;10524;48.132;8.518;2023-05-02T12:40:33;11.52;;;10.35;;
20725;SDS011;10524;48.132;8.518;2023-05-02T12:45:30;12.10;;;10.68;;
20725;SDS011;10524;48.132;8.518;2023-05-02T12:48:45;10.93;;;9.82;;
20725;SDS011;10524;48.132;8.518;2023-05-02T12:50:47;10.68;;;9.50;;
20725;SDS011;10524;48.132;8.518;2023-05-02T12:53:13;10.02;;;9.00;;
20725;SDS011;10524;48.132;8.518;2023-05-02T12:55:39;9.30;;;8.30;;
20725;SDS011;10524;48.132;8.518;2023-05-02T12:58:09;10.90;;;8.70;;
20725;SDS011;10524;48.132;8.518;2023-05-02T13:00:41;10.00;;;9.00;;
20725;SDS011;10524;48.132;8.518;2023-05-02T13:03:07;10.50;;;9.32;;
20725;SDS011;10524;48.132;8.518;2023-05-02T13:05:34;10.15;;;9.15;;
20725;SDS011;10524;48.132;8.518;2023-05-02T13:08:00;9.13;;;8.25;;
20725;SDS011;10524;48.132;8.518;2023-05-02T13:10:26;10.65;;;9.57;;
20725;SDS011;10524;48.132;8.518;2023-05-02T13:12:52;9.75;;;8.75;;
20725;SDS011;10524;48.132;8.518;2023-05-02T13:15:18;11.07;;;9.43;;
20725;SDS011;10524;48.132;8.518;2023-05-02T13:17:44;10.65;;;9.57;;
20725;SDS011;10524;48.132;8.518;2023-05-02T13:20:10;9.20;;;8.30;;
20725;SDS011;10524;48.132;8.518;2023-05-02T13:22:36;10.70;;;9.10;;
20725;SDS011;10524;48.132;8.518;2023-05-02T13:25:02;11.80;;;10.45;;
20725;SDS011;10524;48.132;8.518;2023-05-02T13:27:29;12.80;;;10.57;;
20725;SDS011;10524;48.132;8.518;2023-05-02T13:29:55;8.07;;;7.28;;
20725;SDS011;10524;48.132;8.518;2023-05-02T13:32:21;7.65;;;6.85;;
20725;SDS011;10524;48.132;8.518;2023-05-02T13:34:46;8.75;;;6.65;;
20725;SDS011;10524;48.132;8.518;2023-05-02T13:37:12;9.68;;;8.15;;
20725;SDS011;10524;48.132;8.518;2023-05-02T13:39:38;8.10;;;6.88;;
20725;SDS011;10524;48.132;8.518;2023-05-02T13:42:04;7.22;;;5.70;;
20725;SDS011;10524;48.132;8.518;2023-05-02T13:44:30;7.13;;;6.03;;
20725;SDS011;10524;48.132;8.518;2023-05-02T13:46:56;7.13;;;6.43;;
20725;SDS011;10524;48.132;8.518;2023-05-02T13:49:22;7.13;;;6.43;;
20725;SDS011;10524;48.132;8.518;2023-05-02T13:51:47;9.07;;;7.85;;
20725;SDS011;10524;48.132;8.518;2023-05-02T13:54:13;7.22;;;6.53;;
20725;SDS011;10524;48.132;8.518;2023-05-02T13:56:39;9.50;;;8.23;;
20725;SDS011;10524;48.132;8.518;2023-05-02T13:59:06;8.50;;;7.65;;
20725;SDS011;10524;48.132;8.518;2023-05-02T14:01:32;7.70;;;7.00;;
20725;SDS011;10524;48.132;8.518;2023-05-02T14:03:57;11.05;;;7.72;;
20725;SDS011;10524;48.132;8.518;2023-05-02T14:06:23;6.72;;;5.82;;
20725;SDS011;10524;48.132;8.518;2023-05-02T14:08:49;6.93;;;5.95;;
20725;SDS011;10524;48.132;8.518;2023-05-02T14:11:17;5.20;;;4.70;;
20725;SDS011;10524;48.132;8.518;2023-05-02T14:13:43;6.20;;;4.15;;
20725;SDS011;10524;48.132;8.518;2023-05-02T14:16:09;4.38;;;3.97;;
20725;SDS011;10524;48.132;8.518;2023-05-02T14:18:35;5.22;;;4.45;;
20725;SDS011;10524;48.132;8.518;2023-05-02T14:21:00;4.75;;;4.30;;
20725;SDS011;10524;48.132;8.518;2023-05-02T14:23:27;4.40;;;4.00;;
20725;SDS011;10524;48.132;8.518;2023-05-02T14:25:53;5.05;;;4.55;;
20725;SDS011;10524;48.132;8.518;2023-05-02T14:28:19;5.32;;;4.82;;
20725;SDS011;10524;48.132;8.518;2023-05-02T14:30:48;3.92;;;3.58;;
20725;SDS011;10524;48.132;8.518;2023-05-02T14:33:15;5.63;;;4.50;;
20725;SDS011;10524;48.132;8.518;2023-05-02T14:35:41;3.70;;;3.40;;
20725;SDS011;10524;48.132;8.518;2023-05-02T14:38:06;3.30;;;2.90;;
20725;SDS011;10524;48.132;8.518;2023-05-02T14:40:32;4.53;;;2.92;;
20725;SDS011;10524;48.132;8.518;2023-05-02T14:42:58;3.65;;;2.90;;
20725;SDS011;10524;48.132;8.518;2023-05-02T14:45:24;3.67;;;2.70;;
20725;SDS011;10524;48.132;8.518;2023-05-02T14:47:50;3.00;;;2.70;;
20725;SDS011;10524;48.132;8.518;2023-05-02T14:50:16;3.50;;;3.20;;
20725;SDS011;10524;48.132;8.518;2023-05-02T14:52:42;3.42;;;2.90;;
20725;SDS011;10524;48.132;8.518;2023-05-02T14:55:10;3.50;;;3.17;;
20725;SDS011;10524;48.132;8.518;2023-05-02T14:57:36;4.03;;;3.60;;
20725;SDS011;10524;48.132;8.518;2023-05-02T15:00:02;4.95;;;4.35;;
20725;SDS011;10524;48.132;8.518;2023-05-02T15:02:31;5.20;;;4.80;;
20725;SDS011;10524;48.132;8.518;2023-05-02T15:04:57;6.57;;;5.90;;
20725;SDS011;10524;48.132;8.518;2023-05-02T15:07:23;5.50;;;5.00;;
20725;SDS011;10524;48.132;8.518;2023-05-02T15:09:48;6.75;;;5.97;;
20725;SDS011;10524;48.132;8.518;2023-05-02T15:12:14;6.22;;;5.60;;
20725;SDS011;10524;48.132;8.518;2023-05-02T15:14:40;7.15;;;6.45;;
20725;SDS011;10524;48.132;8.518;2023-05-02T15:17:05;6.70;;;6.00;;
20725;SDS011;10524;48.132;8.518;2023-05-02T15:19:32;6.97;;;6.28;;